sensor_id;sensor_type;location;lat;lon;timestamp;pressure;altitude;pressure_sealevel;temperature;humidity
23339;BME280;11841;49.368;20.962;2023-10-08T00:00:48;95438.16;;;17.34;81.90
23339;BME280;11841;49.368;20.962;2023-10-08T00:03:38;95430.94;;;17.35;81.98
23339;BME280;11841;49.368;20.962;2023-10-08T00:06:26;95419.94;;;17.31;82.45
23339;BME280;11841;49.368;20.962;2023-10-08T00:09:13;95413.53;;;17.27;82.96
23339;BME280;11841;49.368;20.962;2023-10-08T00:12:01;95425.28;;;17.21;83.39
23339;BME280;11841;49.368;20.962;2023-10-08T00:14:47;95417.78;;;17.18;83.08
23339;BME280;11841;49.368;20.962;2023-10-08T00:17:38;95411.34;;;17.19;83.05
23339;BME280;11841;49.368;20.962;2023-10-08T00:20:24;95400.91;;;17.18;83.11
23339;BME280;11841;49.368;20.962;2023-10-08T00:23:23;95386.47;;;17.19;83.40
23339;BME280;11841;49.368;20.962;2023-10-08T00:26:11;95393.94;;;17.07;83.91
23339;BME280;11841;49.368;20.962;2023-10-08T00:29:02;95399.81;;;17.04;84.20
23339;BME280;11841;49.368;20.962;2023-10-08T00:32:21;95397.66;;;17.06;83.82
23339;BME280;11841;49.368;20.962;2023-10-08T00:35:09;95388.56;;;16.97;84.20
23339;BME280;11841;49.368;20.962;2023-10-08T00:37:59;95384.25;;;17.01;84.21
23339;BME280;11841;49.368;20.962;2023-10-08T00:40:47;95376.50;;;17.04;83.95
23339;BME280;11841;49.368;20.962;2023-10-08T00:43:35;95377.31;;;17.05;83.83
23339;BME280;11841;49.368;20.962;2023-10-08T00:46:21;95376.19;;;16.90;84.56
23339;BME280;11841;49.368;20.962;2023-10-08T00:49:21;95374.59;;;16.84;84.90
23339;BME280;11841;49.368;20.962;2023-10-08T00:52:12;95364.44;;;16.92;84.62
23339;BME280;11841;49.368;20.962;2023-10-08T00:54:58;95364.94;;;16.93;84.65
23339;BME280;11841;49.368;20.962;2023-10-08T00:57:52;95375.16;;;16.97;84.38
23339;BME280;11841;49.368;20.962;2023-10-08T01:00:42;95374.09;;;16.98;84.33
23339;BME280;11841;49.368;20.962;2023-10-08T01:03:29;95365.47;;;16.85;84.47
23339;BME280;11841;49.368;20.962;2023-10-08T01:06:14;95368.72;;;16.92;84.32
23339;BME280;11841;49.368;20.962;2023-10-08T01:09:03;95364.16;;;16.88;84.33
23339;BME280;11841;49.368;20.962;2023-10-08T01:12:23;95370.03;;;16.85;84.85
23339;BME280;11841;49.368;20.962;2023-10-08T01:15:13;95366.53;;;16.79;84.80
23339;BME280;11841;49.368;20.962;2023-10-08T01:18:01;95358.53;;;16.84;84.37
23339;BME280;11841;49.368;20.962;2023-10-08T01:20:51;95361.75;;;16.81;84.90
23339;BME280;11841;49.368;20.962;2023-10-08T01:23:37;95359.81;;;16.77;85.28
23339;BME280;11841;49.368;20.962;2023-10-08T01:26:23;95359.56;;;16.78;85.42
23339;BME280;11841;49.368;20.962;2023-10-08T01:29:09;95355.28;;;16.77;85.44
23339;BME280;11841;49.368;20.962;2023-10-08T01:32:04;95347.25;;;16.77;85.74
23339;BME280;11841;49.368;20.962;2023-10-08T01:34:56;95350.75;;;16.78;85.98
23339;BME280;11841;49.368;20.962;2023-10-08T01:37:41;95341.09;;;16.77;86.17
23339;BME280;11841;49.368;20.962;2023-10-08T01:40:27;95337.88;;;16.75;86.46
23339;BME280;11841;49.368;20.962;2023-10-08T01:43:14;95322.59;;;16.65;87.23
23339;BME280;11841;49.368;20.962;2023-10-08T01:46:02;95326.06;;;16.56;88.16
23339;BME280;11841;49.368;20.962;2023-10-08T01:48:48;95329.00;;;16.59;87.68
23339;BME280;11841;49.368;20.962;2023-10-08T01:51:38;95326.81;;;16.51;88.38
23339;BME280;11841;49.368;20.962;2023-10-08T01:54:24;95321.19;;;16.48;88.29
23339;BME280;11841;49.368;20.962;2023-10-08T01:57:11;95322.00;;;16.48;88.24
23339;BME280;11841;49.368;20.962;2023-10-08T01:59:57;95327.63;;;16.52;88.07
23339;BME280;11841;49.368;20.962;2023-10-08T02:02:42;95329.72;;;16.45;88.29
23339;BME280;11841;49.368;20.962;2023-10-08T02:05:27;95338.00;;;16.38;88.98
23339;BME280;11841;49.368;20.962;2023-10-08T02:08:16;95330.97;;;16.27;89.94
23339;BME280;11841;49.368;20.962;2023-10-08T02:11:04;95334.16;;;16.19;90.63
23339;BME280;11841;49.368;20.962;2023-10-08T02:13:49;95326.66;;;16.21;90.89
23339;BME280;11841;49.368;20.962;2023-10-08T02:16:36;95327.72;;;16.15;91.39
23339;BME280;11841;49.368;20.962;2023-10-08T02:19:22;95326.38;;;16.18;91.36
23339;BME280;11841;49.368;20.962;2023-10-08T02:22:13;95324.25;;;16.20;91.37
23339;BME280;11841;49.368;20.962;2023-10-08T02:24:59;95321.53;;;16.10;92.63
23339;BME280;11841;49.368;20.962;2023-10-08T02:27:48;95318.34;;;16.13;92.80
23339;BME280;11841;49.368;20.962;2023-10-08T02:30:34;95324.44;;;16.03;93.14
23339;BME280;11841;49.368;20.962;2023-10-08T02:33:21;95316.19;;;16.10;92.72
23339;BME280;11841;49.368;20.962;2023-10-08T02:36:07;95315.91;;;16.06;93.15
23339;BME280;11841;49.368;20.962;2023-10-08T02:38:55;95313.47;;;16.00;93.57
23339;BME280;11841;49.368;20.962;2023-10-08T02:41:40;95319.09;;;15.98;93.76
23339;BME280;11841;49.368;20.962;2023-10-08T02:44:32;95321.75;;;15.98;94.04
23339;BME280;11841;49.368;20.962;2023-10-08T02:47:17;95315.06;;;16.01;93.80
23339;BME280;11841;49.368;20.962;2023-10-08T02:50:06;95308.16;;;16.05;93.38
23339;BME280;11841;49.368;20.962;2023-10-08T02:52:53;95297.44;;;16.00;93.66
23339;BME280;11841;49.368;20.962;2023-10-08T02:55:39;95297.19;;;16.06;93.37
23339;BME280;11841;49.368;20.962;2023-10-08T02:58:29;95291.28;;;15.99;93.82
23339;BME280;11841;49.368;20.962;2023-10-08T03:01:16;95290.25;;;16.05;93.62
23339;BME280;11841;49.368;20.962;2023-10-08T03:04:01;95296.38;;;16.06;93.82
23339;BME280;11841;49.368;20.962;2023-10-08T03:06:54;95292.69;;;16.12;93.50
23339;BME280;11841;49.368;20.962;2023-10-08T03:09:39;95292.41;;;16.13;93.26
23339;BME280;11841;49.368;20.962;2023-10-08T03:12:27;95294.81;;;16.15;93.69
23339;BME280;11841;49.368;20.962;2023-10-08T03:15:17;95296.66;;;16.09;94.01
23339;BME280;11841;49.368;20.962;2023-10-08T03:18:14;95291.59;;;16.13;93.79
23339;BME280;11841;49.368;20.962;2023-10-08T03:21:03;95291.06;;;16.16;93.64
23339;BME280;11841;49.368;20.962;2023-10-08T03:23:50;95293.25;;;16.19;93.40
23339;BME280;11841;49.368;20.962;2023-10-08T03:26:36;95284.41;;;16.18;93.41
23339;BME280;11841;49.368;20.962;2023-10-08T03:29:23;95295.09;;;16.13;94.13
23339;BME280;11841;49.368;20.962;2023-10-08T03:32:16;95279.88;;;16.19;93.63
23339;BME280;11841;49.368;20.962;2023-10-08T03:35:01;95280.09;;;16.12;94.04
23339;BME280;11841;49.368;20.962;2023-10-08T03:37:49;95291.28;;;15.99;95.11
23339;BME280;11841;49.368;20.962;2023-10-08T03:40:36;95285.91;;;15.99;94.53
23339;BME280;11841;49.368;20.962;2023-10-08T03:43:31;95287.47;;;15.90;93.42
23339;BME280;11841;49.368;20.962;2023-10-08T03:46:20;95298.22;;;15.53;92.24
23339;BME280;11841;49.368;20.962;2023-10-08T03:49:11;95320.84;;;15.14;92.60
23339;BME280;11841;49.368;20.962;2023-10-08T03:52:05;95350.78;;;14.90;92.88
23339;BME280;11841;49.368;20.962;2023-10-08T03:54:52;95346.84;;;14.71;91.80
23339;BME280;11841;49.368;20.962;2023-10-08T03:58:09;95361.00;;;14.49;91.51
23339;BME280;11841;49.368;20.962;2023-10-08T04:01:15;95350.91;;;14.30;90.72
23339;BME280;11841;49.368;20.962;2023-10-08T04:04:04;95344.56;;;14.36;90.31
23339;BME280;11841;49.368;20.962;2023-10-08T04:06:50;95349.47;;;14.44;89.88
23339;BME280;11841;49.368;20.962;2023-10-08T04:09:36;95351.78;;;14.35;88.79
23339;BME280;11841;49.368;20.962;2023-10-08T04:12:24;95348.38;;;14.40;88.99
23339;BME280;11841;49.368;20.962;2023-10-08T04:15:13;95346.13;;;14.53;88.56
23339;BME280;11841;49.368;20.962;2023-10-08T04:18:02;95348.84;;;14.59;87.57
23339;BME280;11841;49.368;20.962;2023-10-08T04:20:48;95345.63;;;14.57;87.65
23339;BME280;11841;49.368;20.962;2023-10-08T04:23:50;95374.41;;;14.54;87.71
23339;BME280;11841;49.368;20.962;2023-10-08T04:26:36;95347.09;;;14.47;86.90
23339;BME280;11841;49.368;20.962;2023-10-08T04:29:25;95354.50;;;14.40;87.02
23339;BME280;11841;49.368;20.962;2023-10-08T04:32:11;95346.00;;;14.43;86.99
23339;BME280;11841;49.368;20.962;2023-10-08T04:34:57;95365.59;;;14.32;85.98
23339;BME280;11841;49.368;20.962;2023-10-08T04:37:43;95385.72;;;14.23;86.17
23339;BME280;11841;49.368;20.962;2023-10-08T04:40:28;95368.34;;;14.21;86.84
23339;BME280;11841;49.368;20.962;2023-10-08T04:43:20;95399.41;;;14.10;87.30
23339;BME280;11841;49.368;20.962;2023-10-08T04:46:16;95394.44;;;13.97;87.53
23339;BME280;11841;49.368;20.962;2023-10-08T04:49:05;95412.00;;;13.98;88.07
23339;BME280;11841;49.368;20.962;2023-10-08T04:52:04;95424.00;;;13.79;89.11
23339;BME280;11841;49.368;20.962;2023-10-08T04:54:59;95408.16;;;13.89;89.06
23339;BME280;11841;49.368;20.962;2023-10-08T04:57:58;95427.94;;;13.93;88.18
23339;BME280;11841;49.368;20.962;2023-10-08T05:00:44;95449.66;;;13.85;87.87
23339;BME280;11841;49.368;20.962;2023-10-08T05:03:38;95451.94;;;13.77;88.55
23339;BME280;11841;49.368;20.962;2023-10-08T05:06:35;95465.81;;;13.79;88.95
23339;BME280;11841;49.368;20.962;2023-10-08T05:09:20;95463.91;;;13.74;89.07
23339;BME280;11841;49.368;20.962;2023-10-08T05:12:05;95459.75;;;13.83;88.89
23339;BME280;11841;49.368;20.962;2023-10-08T05:14:56;95486.50;;;13.88;87.69
23339;BME280;11841;49.368;20.962;2023-10-08T05:18:02;95485.16;;;13.58;87.39
23339;BME280;11841;49.368;20.962;2023-10-08T05:21:09;95491.13;;;13.48;87.48
23339;BME280;11841;49.368;20.962;2023-10-08T05:24:11;95492.84;;;13.54;87.29
23339;BME280;11841;49.368;20.962;2023-10-08T05:26:59;95510.03;;;13.63;86.75
23339;BME280;11841;49.368;20.962;2023-10-08T05:30:10;95514.72;;;13.56;85.83
23339;BME280;11841;49.368;20.962;2023-10-08T05:33:00;95516.16;;;13.47;86.18
23339;BME280;11841;49.368;20.962;2023-10-08T05:35:49;95533.66;;;13.43;85.88
23339;BME280;11841;49.368;20.962;2023-10-08T05:38:35;95558.09;;;13.40;86.09
23339;BME280;11841;49.368;20.962;2023-10-08T05:41:20;95551.47;;;13.43;86.45
23339;BME280;11841;49.368;20.962;2023-10-08T05:44:24;95575.34;;;13.38;85.29
23339;BME280;11841;49.368;20.962;2023-10-08T05:47:23;95571.41;;;13.40;84.87
23339;BME280;11841;49.368;20.962;2023-10-08T05:50:18;95584.78;;;13.17;84.50
23339;BME280;11841;49.368;20.962;2023-10-08T05:53:03;95609.13;;;12.86;85.87
23339;BME280;11841;49.368;20.962;2023-10-08T05:56:06;95625.66;;;12.76;85.09
23339;BME280;11841;49.368;20.962;2023-10-08T05:59:12;95608.44;;;12.79;85.64
23339;BME280;11841;49.368;20.962;2023-10-08T06:02:03;95628.78;;;12.85;84.67
23339;BME280;11841;49.368;20.962;2023-10-08T06:04:51;95620.00;;;12.96;84.47
23339;BME280;11841;49.368;20.962;2023-10-08T06:08:05;95635.72;;;12.86;84.62
23339;BME280;11841;49.368;20.962;2023-10-08T06:10:58;95630.63;;;12.73;84.05
23339;BME280;11841;49.368;20.962;2023-10-08T06:13:46;95631.56;;;12.67;83.74
23339;BME280;11841;49.368;20.962;2023-10-08T06:16:41;95636.19;;;12.60;83.13
23339;BME280;11841;49.368;20.962;2023-10-08T06:19:27;95648.66;;;12.48;82.88
23339;BME280;11841;49.368;20.962;2023-10-08T06:22:13;95656.16;;;12.39;83.18
23339;BME280;11841;49.368;20.962;2023-10-08T06:24:58;95674.09;;;12.44;83.04
23339;BME280;11841;49.368;20.962;2023-10-08T06:28:01;95678.97;;;12.47;82.81
23339;BME280;11841;49.368;20.962;2023-10-08T06:30:49;95707.97;;;12.48;82.67
23339;BME280;11841;49.368;20.962;2023-10-08T06:33:39;95708.34;;;12.22;83.27
23339;BME280;11841;49.368;20.962;2023-10-08T06:36:26;95720.84;;;12.22;83.58
23339;BME280;11841;49.368;20.962;2023-10-08T06:39:13;95739.50;;;12.03;84.65
23339;BME280;11841;49.368;20.962;2023-10-08T06:42:03;95741.06;;;12.23;83.76
23339;BME280;11841;49.368;20.962;2023-10-08T06:44:49;95743.19;;;12.02;82.38
23339;BME280;11841;49.368;20.962;2023-10-08T06:47:35;95746.59;;;11.91;82.69
23339;BME280;11841;49.368;20.962;2023-10-08T06:50:21;95768.91;;;11.90;82.48
23339;BME280;11841;49.368;20.962;2023-10-08T06:53:06;95772.38;;;11.91;83.15
23339;BME280;11841;49.368;20.962;2023-10-08T06:55:52;95759.38;;;12.01;82.86
23339;BME280;11841;49.368;20.962;2023-10-08T06:58:42;95768.56;;;11.98;82.97
23339;BME280;11841;49.368;20.962;2023-10-08T07:01:35;95784.66;;;12.03;82.72
23339;BME280;11841;49.368;20.962;2023-10-08T07:04:31;95789.69;;;11.93;83.64
23339;BME280;11841;49.368;20.962;2023-10-08T07:07:16;95796.06;;;11.92;83.51
23339;BME280;11841;49.368;20.962;2023-10-08T07:10:05;95804.75;;;11.99;83.86
23339;BME280;11841;49.368;20.962;2023-10-08T07:12:50;95814.66;;;11.92;83.44
23339;BME280;11841;49.368;20.962;2023-10-08T07:15:38;95825.72;;;11.71;83.41
23339;BME280;11841;49.368;20.962;2023-10-08T07:18:26;95826.97;;;11.62;83.37
23339;BME280;11841;49.368;20.962;2023-10-08T07:21:11;95826.38;;;11.67;82.87
23339;BME280;11841;49.368;20.962;2023-10-08T07:23:57;95839.88;;;11.65;82.78
23339;BME280;11841;49.368;20.962;2023-10-08T07:26:45;95840.34;;;11.56;81.87
23339;BME280;11841;49.368;20.962;2023-10-08T07:29:35;95834.94;;;11.44;82.23
23339;BME280;11841;49.368;20.962;2023-10-08T07:32:20;95837.00;;;11.42;81.35
23339;BME280;11841;49.368;20.962;2023-10-08T07:35:06;95833.59;;;11.35;81.67
23339;BME280;11841;49.368;20.962;2023-10-08T07:38:10;95835.22;;;11.36;82.43
23339;BME280;11841;49.368;20.962;2023-10-08T07:40:57;95840.47;;;11.43;81.81
23339;BME280;11841;49.368;20.962;2023-10-08T07:43:43;95841.00;;;11.51;81.73
23339;BME280;11841;49.368;20.962;2023-10-08T07:46:31;95857.53;;;11.53;82.21
23339;BME280;11841;49.368;20.962;2023-10-08T07:49:18;95867.72;;;11.56;82.64
23339;BME280;11841;49.368;20.962;2023-10-08T07:52:04;95856.63;;;11.41;81.53
23339;BME280;11841;49.368;20.962;2023-10-08T07:54:49;95855.16;;;11.45;82.54
23339;BME280;11841;49.368;20.962;2023-10-08T07:57:35;95859.00;;;11.49;82.17
23339;BME280;11841;49.368;20.962;2023-10-08T08:00:20;95854.34;;;11.45;81.30
23339;BME280;11841;49.368;20.962;2023-10-08T08:03:10;95848.59;;;11.48;81.62
23339;BME280;11841;49.368;20.962;2023-10-08T08:05:56;95847.19;;;11.45;82.14
23339;BME280;11841;49.368;20.962;2023-10-08T08:08:44;95845.63;;;11.38;81.97
23339;BME280;11841;49.368;20.962;2023-10-08T08:11:29;95832.84;;;11.28;82.71
23339;BME280;11841;49.368;20.962;2023-10-08T08:14:15;95851.16;;;11.36;83.34
23339;BME280;11841;49.368;20.962;2023-10-08T08:17:09;95840.25;;;11.44;83.65
23339;BME280;11841;49.368;20.962;2023-10-08T08:20:01;95848.44;;;11.61;83.62
23339;BME280;11841;49.368;20.962;2023-10-08T08:23:02;95851.66;;;11.69;83.58
23339;BME280;11841;49.368;20.962;2023-10-08T08:25:51;95852.50;;;11.70;83.49
23339;BME280;11841;49.368;20.962;2023-10-08T08:29:00;95851.66;;;11.69;83.90
23339;BME280;11841;49.368;20.962;2023-10-08T08:31:47;95863.44;;;11.55;83.59
23339;BME280;11841;49.368;20.962;2023-10-08T08:34:32;95852.66;;;11.50;83.65
23339;BME280;11841;49.368;20.962;2023-10-08T08:37:18;95866.25;;;11.60;83.82
23339;BME280;11841;49.368;20.962;2023-10-08T08:40:04;95870.38;;;11.56;83.84
23339;BME280;11841;49.368;20.962;2023-10-08T08:42:53;95868.16;;;11.53;83.80
23339;BME280;11841;49.368;20.962;2023-10-08T08:45:41;95875.03;;;11.36;84.32
23339;BME280;11841;49.368;20.962;2023-10-08T08:48:30;95883.50;;;11.27;85.34
23339;BME280;11841;49.368;20.962;2023-10-08T08:51:16;95889.94;;;11.37;84.95
23339;BME280;11841;49.368;20.962;2023-10-08T08:54:02;95890.09;;;11.42;84.88
23339;BME280;11841;49.368;20.962;2023-10-08T08:56:51;95890.69;;;11.44;85.16
23339;BME280;11841;49.368;20.962;2023-10-08T08:59:37;95897.19;;;11.48;83.22
23339;BME280;11841;49.368;20.962;2023-10-08T09:02:23;95906.25;;;11.41;82.21
23339;BME280;11841;49.368;20.962;2023-10-08T09:05:08;95886.66;;;11.35;81.98
23339;BME280;11841;49.368;20.962;2023-10-08T09:08:09;95885.97;;;11.46;82.45
23339;BME280;11841;49.368;20.962;2023-10-08T09:10:57;95878.00;;;11.46;82.84
23339;BME280;11841;49.368;20.962;2023-10-08T09:13:45;95894.25;;;11.56;82.88
23339;BME280;11841;49.368;20.962;2023-10-08T09:16:34;95897.53;;;11.58;81.86
23339;BME280;11841;49.368;20.962;2023-10-08T09:19:20;95895.03;;;11.63;81.84
23339;BME280;11841;49.368;20.962;2023-10-08T09:22:11;95897.69;;;11.63;81.80
23339;BME280;11841;49.368;20.962;2023-10-08T09:24:57;95908.72;;;11.67;81.73
23339;BME280;11841;49.368;20.962;2023-10-08T09:27:44;95898.69;;;11.62;81.91
23339;BME280;11841;49.368;20.962;2023-10-08T09:30:31;95892.56;;;11.68;82.07
23339;BME280;11841;49.368;20.962;2023-10-08T09:33:18;95882.22;;;11.78;81.89
23339;BME280;11841;49.368;20.962;2023-10-08T09:36:05;95892.84;;;11.78;81.82
23339;BME280;11841;49.368;20.962;2023-10-08T09:38:52;95884.81;;;11.85;82.13
23339;BME280;11841;49.368;20.962;2023-10-08T09:41:40;95890.66;;;11.93;82.27
23339;BME280;11841;49.368;20.962;2023-10-08T09:44:26;95913.22;;;11.84;79.93
23339;BME280;11841;49.368;20.962;2023-10-08T09:47:12;95911.38;;;11.85;79.05
23339;BME280;11841;49.368;20.962;2023-10-08T09:50:02;95912.13;;;11.92;79.90
23339;BME280;11841;49.368;20.962;2023-10-08T09:53:12;95903.72;;;11.95;78.61
23339;BME280;11841;49.368;20.962;2023-10-08T09:56:13;95906.59;;;11.93;79.59
23339;BME280;11841;49.368;20.962;2023-10-08T09:59:00;95915.25;;;11.89;80.84
23339;BME280;11841;49.368;20.962;2023-10-08T10:01:46;95914.63;;;11.87;80.73
23339;BME280;11841;49.368;20.962;2023-10-08T10:04:32;95913.97;;;11.91;81.01
23339;BME280;11841;49.368;20.962;2023-10-08T10:07:19;95918.34;;;11.86;81.26
23339;BME280;11841;49.368;20.962;2023-10-08T10:10:08;95913.22;;;11.84;81.56
23339;BME280;11841;49.368;20.962;2023-10-08T10:13:11;95909.84;;;11.77;82.38
23339;BME280;11841;49.368;20.962;2023-10-08T10:15:57;95922.81;;;11.67;81.68
23339;BME280;11841;49.368;20.962;2023-10-08T10:18:44;95909.31;;;11.69;81.60
23339;BME280;11841;49.368;20.962;2023-10-08T10:21:33;95925.63;;;11.72;82.12
23339;BME280;11841;49.368;20.962;2023-10-08T10:24:23;95922.81;;;11.67;81.59
23339;BME280;11841;49.368;20.962;2023-10-08T10:27:14;95936.31;;;11.59;82.38
23339;BME280;11841;49.368;20.962;2023-10-08T10:30:03;95931.78;;;11.66;83.07
23339;BME280;11841;49.368;20.962;2023-10-08T10:32:54;95932.53;;;11.73;82.77
23339;BME280;11841;49.368;20.962;2023-10-08T10:35:40;95934.16;;;11.74;82.63
23339;BME280;11841;49.368;20.962;2023-10-08T10:38:29;95941.94;;;11.76;82.79
23339;BME280;11841;49.368;20.962;2023-10-08T10:41:14;95961.16;;;11.71;82.26
23339;BME280;11841;49.368;20.962;2023-10-08T10:44:02;95949.38;;;11.67;81.38
23339;BME280;11841;49.368;20.962;2023-10-08T10:46:53;95945.69;;;11.62;82.28
23339;BME280;11841;49.368;20.962;2023-10-08T10:49:57;95952.00;;;11.61;81.25
23339;BME280;11841;49.368;20.962;2023-10-08T10:52:42;95959.19;;;11.60;81.29
23339;BME280;11841;49.368;20.962;2023-10-08T10:55:37;95954.09;;;11.59;80.83
23339;BME280;11841;49.368;20.962;2023-10-08T10:58:24;95957.28;;;11.43;80.38
23339;BME280;11841;49.368;20.962;2023-10-08T11:01:09;95966.91;;;11.37;80.52
23339;BME280;11841;49.368;20.962;2023-10-08T11:04:10;95957.50;;;11.41;81.60
23339;BME280;11841;49.368;20.962;2023-10-08T11:07:02;95977.28;;;11.45;81.00
23339;BME280;11841;49.368;20.962;2023-10-08T11:09:52;95986.00;;;11.52;80.52
23339;BME280;11841;49.368;20.962;2023-10-08T11:12:40;95986.16;;;11.57;79.77
23339;BME280;11841;49.368;20.962;2023-10-08T11:15:32;95981.59;;;11.71;79.49
23339;BME280;11841;49.368;20.962;2023-10-08T11:18:26;95976.81;;;11.79;77.48
23339;BME280;11841;49.368;20.962;2023-10-08T11:21:15;95982.50;;;11.83;76.90
23339;BME280;11841;49.368;20.962;2023-10-08T11:24:02;95980.84;;;11.88;75.72
23339;BME280;11841;49.368;20.962;2023-10-08T11:26:54;95989.63;;;11.89;73.99
23339;BME280;11841;49.368;20.962;2023-10-08T11:29:48;95986.31;;;11.93;72.96
23339;BME280;11841;49.368;20.962;2023-10-08T11:32:41;95984.63;;;11.99;71.95
23339;BME280;11841;49.368;20.962;2023-10-08T11:35:33;95995.25;;;11.99;71.73
23339;BME280;11841;49.368;20.962;2023-10-08T11:38:19;95992.91;;;12.09;71.36
23339;BME280;11841;49.368;20.962;2023-10-08T11:41:12;96008.78;;;12.15;70.57
23339;BME280;11841;49.368;20.962;2023-10-08T11:44:06;95985.91;;;12.33;70.90
23339;BME280;11841;49.368;20.962;2023-10-08T11:46:59;95986.16;;;12.49;71.69
23339;BME280;11841;49.368;20.962;2023-10-08T11:49:56;95993.78;;;12.64;70.13
23339;BME280;11841;49.368;20.962;2023-10-08T11:53:02;95988.38;;;12.70;69.94
23339;BME280;11841;49.368;20.962;2023-10-08T11:55:48;96008.09;;;12.81;70.54
23339;BME280;11841;49.368;20.962;2023-10-08T11:58:34;95992.28;;;12.86;68.92
23339;BME280;11841;49.368;20.962;2023-10-08T12:01:26;96010.22;;;12.90;68.35
23339;BME280;11841;49.368;20.962;2023-10-08T12:04:12;96009.84;;;12.87;68.96
23339;BME280;11841;49.368;20.962;2023-10-08T12:07:04;96019.84;;;12.55;68.97
23339;BME280;11841;49.368;20.962;2023-10-08T12:09:52;96041.78;;;12.51;69.61
23339;BME280;11841;49.368;20.962;2023-10-08T12:12:39;96029.81;;;12.42;69.66
23339;BME280;11841;49.368;20.962;2023-10-08T12:15:26;96037.47;;;12.32;70.16
23339;BME280;11841;49.368;20.962;2023-10-08T12:18:23;96048.50;;;12.35;69.36
23339;BME280;11841;49.368;20.962;2023-10-08T12:21:15;96060.06;;;12.41;67.37
23339;BME280;11841;49.368;20.962;2023-10-08T12:24:01;96051.53;;;12.57;67.27
23339;BME280;11841;49.368;20.962;2023-10-08T12:26:50;96055.06;;;12.33;64.43
23339;BME280;11841;49.368;20.962;2023-10-08T12:29:36;96057.56;;;12.28;64.14
23339;BME280;11841;49.368;20.962;2023-10-08T12:32:23;96060.38;;;12.33;63.67
23339;BME280;11841;49.368;20.962;2023-10-08T12:35:11;96074.25;;;12.35;61.17
23339;BME280;11841;49.368;20.962;2023-10-08T12:37:59;96074.56;;;12.45;60.43
23339;BME280;11841;49.368;20.962;2023-10-08T12:40:44;96072.38;;;12.60;61.57
23339;BME280;11841;49.368;20.962;2023-10-08T12:43:32;96076.88;;;12.59;60.99
23339;BME280;11841;49.368;20.962;2023-10-08T12:46:21;96078.13;;;12.57;60.13
23339;BME280;11841;49.368;20.962;2023-10-08T12:49:10;96067.81;;;12.67;59.59
23339;BME280;11841;49.368;20.962;2023-10-08T12:51:55;96064.53;;;12.65;59.13
23339;BME280;11841;49.368;20.962;2023-10-08T12:54:43;96062.19;;;12.57;58.81
23339;BME280;11841;49.368;20.962;2023-10-08T12:57:30;96069.41;;;12.68;59.49
23339;BME280;11841;49.368;20.962;2023-10-08T13:00:19;96075.72;;;12.73;56.80
23339;BME280;11841;49.368;20.962;2023-10-08T13:03:08;96069.84;;;12.83;56.55
23339;BME280;11841;49.368;20.962;2023-10-08T13:06:01;96067.72;;;12.73;57.80
23339;BME280;11841;49.368;20.962;2023-10-08T13:08:49;96049.69;;;12.75;58.11
23339;BME280;11841;49.368;20.962;2023-10-08T13:11:38;96064.53;;;12.65;57.62
23339;BME280;11841;49.368;20.962;2023-10-08T13:14:24;96059.53;;;12.75;57.80
23339;BME280;11841;49.368;20.962;2023-10-08T13:17:10;96070.53;;;12.78;57.87
23339;BME280;11841;49.368;20.962;2023-10-08T13:19:56;96078.59;;;12.72;56.60
23339;BME280;11841;49.368;20.962;2023-10-08T13:22:41;96081.47;;;12.52;56.69
23339;BME280;11841;49.368;20.962;2023-10-08T13:25:28;96090.34;;;12.22;56.66
23339;BME280;11841;49.368;20.962;2023-10-08T13:28:17;96087.94;;;12.13;57.03
23339;BME280;11841;49.368;20.962;2023-10-08T13:31:05;96092.88;;;12.10;58.20
23339;BME280;11841;49.368;20.962;2023-10-08T13:33:57;96088.63;;;12.27;58.56
23339;BME280;11841;49.368;20.962;2023-10-08T13:36:46;96092.44;;;12.38;58.80
23339;BME280;11841;49.368;20.962;2023-10-08T13:39:34;96095.19;;;12.49;58.94
23339;BME280;11841;49.368;20.962;2023-10-08T13:42:20;96108.69;;;12.48;58.04
23339;BME280;11841;49.368;20.962;2023-10-08T13:45:06;96106.13;;;12.17;56.78
23339;BME280;11841;49.368;20.962;2023-10-08T13:47:53;96103.50;;;12.10;57.82
23339;BME280;11841;49.368;20.962;2023-10-08T13:50:42;96113.66;;;12.20;58.11
23339;BME280;11841;49.368;20.962;2023-10-08T13:53:30;96104.53;;;12.34;57.58
23339;BME280;11841;49.368;20.962;2023-10-08T13:56:15;96104.03;;;12.43;57.99
23339;BME280;11841;49.368;20.962;2023-10-08T13:59:04;96101.59;;;12.42;55.99
23339;BME280;11841;49.368;20.962;2023-10-08T14:01:57;96119.19;;;12.43;56.73
23339;BME280;11841;49.368;20.962;2023-10-08T14:04:43;96112.63;;;12.45;57.35
23339;BME280;11841;49.368;20.962;2023-10-08T14:07:30;96120.59;;;12.45;56.04
23339;BME280;11841;49.368;20.962;2023-10-08T14:10:15;96115.13;;;12.40;55.77
23339;BME280;11841;49.368;20.962;2023-10-08T14:13:04;96106.31;;;12.40;55.49
23339;BME280;11841;49.368;20.962;2023-10-08T14:15:49;96111.59;;;12.22;55.68
23339;BME280;11841;49.368;20.962;2023-10-08T14:18:41;96128.13;;;11.99;54.49
23339;BME280;11841;49.368;20.962;2023-10-08T14:21:26;96122.53;;;11.82;54.49
23339;BME280;11841;49.368;20.962;2023-10-08T14:24:23;96131.84;;;11.91;54.69
23339;BME280;11841;49.368;20.962;2023-10-08T14:27:09;96157.00;;;11.89;54.74
23339;BME280;11841;49.368;20.962;2023-10-08T14:29:55;96141.28;;;11.87;54.61
23339;BME280;11841;49.368;20.962;2023-10-08T14:32:46;96144.72;;;11.88;55.22
23339;BME280;11841;49.368;20.962;2023-10-08T14:35:31;96151.91;;;11.87;55.04
23339;BME280;11841;49.368;20.962;2023-10-08T14:38:35;96161.59;;;11.75;53.99
23339;BME280;11841;49.368;20.962;2023-10-08T14:41:39;96172.06;;;11.64;53.53
23339;BME280;11841;49.368;20.962;2023-10-08T14:44:43;96164.47;;;11.61;54.20
23339;BME280;11841;49.368;20.962;2023-10-08T14:47:29;96170.38;;;11.63;53.89